createdAt,value
2023-08-07T00:02:01.831Z,99.90
2023-08-07T00:04:29.051Z,99.90
2023-08-07T00:06:55.752Z,99.90
2023-08-07T00:09:22.475Z,99.90
2023-08-07T00:11:49.377Z,99.90
2023-08-07T00:14:16.149Z,99.90
2023-08-07T00:16:42.959Z,99.90
2023-08-07T00:19:09.702Z,99.90
2023-08-07T00:21:36.987Z,99.90
2023-08-07T00:24:03.991Z,99.90
2023-08-07T00:26:33.144Z,99.90
2023-08-07T00:29:00.020Z,99.90
2023-08-07T00:31:27.101Z,99.90
2023-08-07T00:33:55.423Z,99.90
2023-08-07T00:36:22.298Z,99.90
2023-08-07T00:38:49.032Z,99.90
2023-08-07T00:41:18.567Z,99.90
2023-08-07T00:43:45.304Z,99.90
2023-08-07T00:46:12.312Z,99.90
2023-08-07T00:48:40.140Z,99.90
2023-08-07T00:51:08.945Z,99.90
2023-08-07T00:53:40.755Z,99.90
2023-08-07T00:56:08.363Z,99.90
2023-08-07T00:58:35.243Z,99.90
2023-08-07T01:01:02.586Z,99.90
2023-08-07T01:03:29.530Z,99.90
2023-08-07T01:05:56.328Z,99.90
2023-08-07T01:08:24.196Z,99.90
2023-08-07T01:11:21.032Z,99.90
2023-08-07T01:14:12.310Z,99.90
2023-08-07T01:16:47.148Z,99.90
2023-08-07T01:19:27.731Z,99.90
2023-08-07T01:22:07.041Z,99.90
2023-08-07T01:24:34.285Z,99.90
2023-08-07T01:27:18.440Z,99.90
2023-08-07T01:30:09.795Z,99.90
2023-08-07T01:33:09.624Z,99.90
2023-08-07T01:35:41.385Z,99.90
2023-08-07T01:38:09.149Z,99.90
2023-08-07T01:40:38.570Z,99.90
2023-08-07T01:43:05.561Z,99.90
2023-08-07T01:45:32.311Z,99.90
2023-08-07T01:48:00.137Z,99.90
2023-08-07T01:50:27.199Z,99.90
2023-08-07T01:52:54.367Z,99.90
2023-08-07T01:55:22.074Z,99.90
2023-08-07T01:57:48.816Z,99.90
2023-08-07T02:00:15.637Z,99.90
2023-08-07T02:02:42.440Z,99.90
2023-08-07T02:05:09.376Z,99.90
2023-08-07T02:07:36.123Z,99.90
2023-08-07T02:10:03.061Z,99.90
2023-08-07T02:12:33.113Z,99.90
2023-08-07T02:15:03.006Z,99.90
2023-08-07T02:17:33.953Z,99.90
2023-08-07T02:20:00.880Z,99.90
2023-08-07T02:22:27.655Z,99.90
2023-08-07T02:24:54.453Z,99.90
2023-08-07T02:27:21.200Z,99.90
2023-08-07T02:29:47.990Z,99.90
2023-08-07T02:32:14.809Z,99.90
2023-08-07T02:34:41.565Z,99.90
2023-08-07T02:37:08.266Z,99.90
2023-08-07T02:39:35.018Z,99.90
2023-08-07T02:42:01.879Z,99.90
2023-08-07T02:44:28.576Z,99.90
2023-08-07T02:46:55.576Z,99.90
2023-08-07T02:49:22.661Z,99.90
2023-08-07T02:51:49.431Z,99.90
2023-08-07T02:54:16.135Z,99.90
2023-08-07T02:56:43.043Z,99.90
2023-08-07T02:59:09.976Z,99.90
2023-08-07T03:01:36.725Z,99.90
2023-08-07T03:04:03.654Z,99.90
2023-08-07T03:06:30.437Z,99.90
2023-08-07T03:08:57.118Z,99.90
2023-08-07T03:11:23.941Z,99.90
2023-08-07T03:13:50.696Z,99.90
2023-08-07T03:16:17.868Z,99.90
2023-08-07T03:18:44.719Z,99.90
2023-08-07T03:21:11.715Z,99.90
2023-08-07T03:23:38.470Z,99.90
2023-08-07T03:28:40.267Z,99.90
2023-08-07T03:31:07.514Z,99.90
2023-08-07T03:33:34.468Z,99.90
2023-08-07T03:36:01.369Z,99.90
2023-08-07T03:38:28.226Z,99.90
2023-08-07T03:40:54.970Z,99.90
2023-08-07T03:43:21.708Z,99.90
2023-08-07T03:45:48.626Z,99.90
2023-08-07T03:48:15.485Z,99.90
2023-08-07T03:50:42.289Z,99.90
2023-08-07T03:53:09.093Z,99.90
2023-08-07T03:55:36.351Z,99.90
2023-08-07T03:58:03.568Z,99.90
2023-08-07T04:00:30.421Z,99.90
2023-08-07T04:02:57.249Z,99.90
2023-08-07T04:05:24.040Z,99.90
2023-08-07T04:07:50.751Z,99.90
2023-08-07T04:10:17.533Z,99.90
2023-08-07T04:12:44.689Z,99.90
2023-08-07T04:15:11.511Z,99.90
2023-08-07T04:17:38.299Z,99.90
2023-08-07T04:20:06.300Z,99.90
2023-08-07T04:22:33.065Z,99.90
2023-08-07T04:25:01.046Z,99.90
2023-08-07T04:27:28.089Z,99.90
2023-08-07T04:29:54.988Z,99.90
2023-08-07T04:32:21.688Z,99.90
2023-08-07T04:34:48.395Z,99.90
2023-08-07T04:37:15.117Z,99.90
2023-08-07T04:39:41.871Z,99.90
2023-08-07T04:42:08.544Z,99.90
2023-08-07T04:44:35.249Z,99.90
2023-08-07T04:47:02.031Z,99.90
2023-08-07T04:49:28.773Z,99.90
2023-08-07T04:51:55.486Z,99.90
2023-08-07T04:54:22.355Z,99.90
2023-08-07T04:56:49.479Z,99.90
2023-08-07T04:59:16.247Z,99.90
2023-08-07T05:01:43.002Z,99.90
2023-08-07T05:04:09.822Z,99.90
2023-08-07T05:06:36.610Z,99.90
2023-08-07T05:09:04.397Z,99.90
2023-08-07T05:11:31.306Z,99.90
2023-08-07T05:13:58.077Z,99.90
2023-08-07T05:16:25.265Z,99.90
2023-08-07T05:18:53.201Z,99.90
2023-08-07T05:21:19.981Z,99.90
2023-08-07T05:23:46.726Z,99.90
2023-08-07T05:26:13.514Z,99.90
2023-08-07T05:28:40.257Z,99.90
2023-08-07T05:31:06.983Z,99.90
2023-08-07T05:33:33.758Z,99.90
2023-08-07T05:36:00.460Z,99.90
2023-08-07T05:38:27.235Z,99.90
2023-08-07T05:40:53.947Z,99.90
2023-08-07T05:43:20.740Z,99.90
2023-08-07T05:45:47.583Z,99.90
2023-08-07T05:48:14.416Z,99.90
2023-08-07T05:50:41.132Z,99.90
2023-08-07T05:53:07.848Z,99.90
2023-08-07T05:55:35.481Z,99.90
2023-08-07T05:58:02.226Z,99.90
2023-08-07T06:00:29.666Z,99.90
2023-08-07T06:02:56.586Z,99.90
2023-08-07T06:05:23.331Z,99.90
2023-08-07T06:07:50.117Z,99.90
2023-08-07T06:10:17.022Z,99.90
2023-08-07T06:12:43.768Z,99.90
2023-08-07T06:15:11.062Z,99.90
2023-08-07T06:17:37.933Z,99.90
2023-08-07T06:20:06.178Z,99.90
2023-08-07T06:22:33.859Z,99.90
2023-08-07T06:25:00.701Z,99.90
2023-08-07T06:27:27.451Z,99.90
2023-08-07T06:29:54.236Z,99.90
2023-08-07T06:32:20.984Z,99.90
2023-08-07T06:34:47.708Z,99.90
2023-08-07T06:37:14.450Z,99.90
2023-08-07T06:39:41.190Z,99.90
2023-08-07T06:42:08.266Z,99.90
2023-08-07T06:44:35.193Z,99.90
2023-08-07T06:47:02.040Z,99.90
2023-08-07T06:49:28.813Z,99.90
2023-08-07T06:51:55.864Z,99.90
2023-08-07T06:54:22.776Z,99.90
2023-08-07T06:56:49.492Z,99.90
2023-08-07T06:59:16.245Z,99.90
2023-08-07T07:01:43.003Z,99.90
2023-08-07T07:04:09.864Z,99.90
2023-08-07T07:06:38.729Z,99.90
2023-08-07T07:09:05.886Z,99.90
2023-08-07T07:11:32.619Z,99.90
2023-08-07T07:13:59.355Z,99.90
2023-08-07T07:16:27.328Z,99.90
2023-08-07T07:18:57.299Z,99.90
2023-08-07T07:21:24.059Z,99.90
2023-08-07T07:23:51.131Z,99.90
2023-08-07T07:26:17.812Z,99.90
2023-08-07T07:28:44.581Z,99.90
2023-08-07T07:31:12.737Z,99.90
2023-08-07T07:33:41.726Z,99.90
2023-08-07T07:36:08.620Z,99.90
2023-08-07T07:38:35.335Z,99.90
2023-08-07T07:41:02.042Z,99.90
2023-08-07T07:43:28.762Z,99.90
2023-08-07T07:45:55.636Z,99.90
2023-08-07T07:48:22.393Z,99.90
2023-08-07T07:50:49.093Z,99.90
2023-08-07T07:53:15.800Z,99.90
2023-08-07T07:55:47.379Z,99.90
2023-08-07T07:58:14.109Z,99.90
2023-08-07T08:00:40.832Z,99.90
2023-08-07T08:03:07.642Z,99.90
2023-08-07T08:05:35.533Z,99.90
2023-08-07T08:08:02.428Z,99.90
2023-08-07T08:10:29.190Z,99.90
2023-08-07T08:12:56.999Z,99.90
2023-08-07T08:15:23.951Z,99.90
2023-08-07T08:17:50.673Z,99.90
2023-08-07T08:20:19.169Z,99.90
2023-08-07T08:22:46.563Z,99.90
2023-08-07T08:25:14.223Z,99.90
2023-08-07T08:27:41.937Z,99.90
2023-08-07T08:30:09.903Z,99.90
2023-08-07T08:32:36.725Z,99.90
2023-08-07T08:35:03.662Z,99.90
2023-08-07T08:37:30.483Z,99.90
2023-08-07T08:39:57.246Z,99.90
2023-08-07T08:42:24.333Z,99.90
2023-08-07T08:44:56.606Z,99.90
2023-08-07T08:47:26.366Z,99.90
2023-08-07T08:50:03.301Z,99.90
2023-08-07T08:52:31.868Z,99.90
2023-08-07T08:54:59.501Z,99.90
2023-08-07T08:57:27.637Z,99.90
2023-08-07T08:59:54.559Z,99.90
2023-08-07T09:02:21.511Z,99.90
2023-08-07T09:04:48.292Z,99.90
2023-08-07T09:07:17.231Z,99.90
2023-08-07T09:09:46.044Z,99.90
2023-08-07T09:12:19.980Z,99.90
2023-08-07T09:14:53.933Z,99.90
2023-08-07T09:17:24.586Z,99.90
2023-08-07T09:19:52.041Z,99.90
2023-08-07T09:22:19.554Z,99.90
2023-08-07T09:24:46.545Z,99.90
2023-08-07T09:27:14.514Z,99.90
2023-08-07T09:29:42.025Z,99.90
2023-08-07T09:32:15.589Z,99.90
2023-08-07T09:34:43.480Z,99.90
2023-08-07T09:37:11.081Z,99.90
2023-08-07T09:39:38.646Z,99.90
2023-08-07T09:42:05.908Z,99.90
2023-08-07T09:44:38.956Z,99.90
2023-08-07T09:47:19.028Z,99.90
2023-08-07T09:49:47.412Z,99.90
2023-08-07T09:52:16.578Z,99.90
2023-08-07T09:54:43.376Z,99.90
2023-08-07T09:57:10.084Z,99.90
2023-08-07T09:59:37.019Z,99.90
2023-08-07T10:02:04.983Z,99.90
2023-08-07T10:04:32.371Z,99.90
2023-08-07T10:06:59.722Z,99.90
2023-08-07T10:09:28.596Z,99.90
2023-08-07T10:11:56.131Z,99.90
2023-08-07T10:14:23.810Z,99.90
2023-08-07T10:16:52.390Z,99.90
2023-08-07T10:19:19.232Z,99.90
2023-08-07T10:21:46.894Z,99.90
2023-08-07T10:24:16.658Z,99.90
2023-08-07T10:26:46.070Z,98.00
2023-08-07T10:29:17.109Z,99.80
2023-08-07T10:31:45.886Z,99.90
2023-08-07T10:34:12.724Z,94.10
2023-08-07T10:36:41.808Z,93.10
2023-08-07T10:39:13.254Z,97.60
2023-08-07T10:41:46.664Z,82.60
2023-08-07T10:44:21.215Z,79.10
2023-08-07T10:46:53.036Z,65.80
2023-08-07T10:49:39.517Z,62.20
2023-08-07T10:52:16.124Z,55.30
2023-08-07T10:54:50.865Z,50.00
2023-08-07T10:57:20.261Z,51.10
2023-08-07T11:00:02.366Z,46.50
2023-08-07T11:02:31.815Z,46.60
2023-08-07T11:04:59.083Z,44.20
2023-08-07T11:07:31.126Z,42.20
2023-08-07T11:09:59.697Z,40.80
2023-08-07T11:12:27.560Z,40.00
2023-08-07T11:14:57.811Z,41.40
2023-08-07T11:17:29.636Z,37.40
2023-08-07T11:19:56.953Z,35.30
2023-08-07T11:22:24.421Z,34.90
2023-08-07T11:24:54.614Z,33.50
2023-08-07T11:27:23.607Z,33.20
2023-08-07T11:29:50.753Z,30.10
2023-08-07T11:32:17.690Z,30.20
2023-08-07T11:34:53.866Z,29.60
2023-08-07T11:37:21.075Z,28.50
2023-08-07T11:39:47.852Z,27.70
2023-08-07T11:42:14.762Z,28.10
2023-08-07T11:44:42.202Z,28.50
2023-08-07T11:47:09.973Z,29.50
2023-08-07T11:49:37.614Z,30.70
2023-08-07T11:52:04.760Z,28.70
2023-08-07T11:54:31.914Z,28.40
2023-08-07T11:56:58.974Z,29.60
2023-08-07T11:59:27.204Z,27.60
2023-08-07T12:01:53.976Z,26.80
2023-08-07T12:04:20.805Z,25.70
2023-08-07T12:06:58.101Z,23.00
2023-08-07T12:09:27.083Z,21.40
2023-08-07T12:12:00.215Z,21.80
2023-08-07T12:14:31.132Z,20.90
2023-08-07T12:16:58.299Z,20.60
2023-08-07T12:19:25.210Z,19.80
2023-08-07T12:21:52.045Z,20.00
2023-08-07T12:24:19.136Z,19.10
2023-08-07T12:26:45.834Z,19.20
2023-08-07T12:29:12.632Z,17.90
2023-08-07T12:31:40.284Z,16.90
2023-08-07T12:36:36.801Z,17.90
2023-08-07T12:39:03.798Z,14.80
2023-08-07T12:44:02.317Z,16.00
2023-08-07T12:46:32.386Z,15.40
2023-08-07T12:48:59.396Z,14.80
2023-08-07T12:51:26.087Z,15.70
2023-08-07T12:53:53.436Z,16.30
2023-08-07T12:56:20.124Z,15.70
2023-08-07T12:58:47.692Z,14.40
2023-08-07T13:01:14.615Z,14.50
2023-08-07T13:03:41.469Z,13.40
2023-08-07T13:06:09.855Z,12.90
2023-08-07T13:08:36.704Z,12.50
2023-08-07T13:11:03.458Z,11.90
2023-08-07T13:13:31.743Z,12.70
2023-08-07T13:15:58.720Z,13.10
2023-08-07T13:18:25.827Z,13.20
2023-08-07T13:20:52.593Z,12.30
2023-08-07T13:23:19.418Z,11.30
2023-08-07T13:25:46.132Z,11.10
2023-08-07T13:28:12.909Z,9.70
2023-08-07T13:30:39.658Z,9.50
2023-08-07T13:33:06.574Z,9.60
2023-08-07T13:35:34.333Z,9.50
2023-08-07T13:38:01.325Z,9.40
2023-08-07T13:40:28.094Z,9.40
2023-08-07T13:42:54.883Z,7.80
2023-08-07T13:45:21.858Z,6.80
2023-08-07T13:47:48.825Z,7.50
2023-08-07T13:50:16.332Z,7.40
2023-08-07T13:52:43.194Z,7.80
2023-08-07T13:55:10.485Z,9.30
2023-08-07T13:57:37.610Z,9.90
2023-08-07T14:00:05.582Z,10.50
2023-08-07T14:02:34.445Z,11.50
2023-08-07T14:05:01.257Z,11.70
2023-08-07T14:07:28.033Z,11.10
2023-08-07T14:09:54.869Z,9.80
2023-08-07T14:12:21.647Z,8.60
2023-08-07T14:14:48.360Z,8.10
2023-08-07T14:17:15.120Z,7.90
2023-08-07T14:19:41.904Z,7.10
2023-08-07T14:22:08.819Z,7.70
2023-08-07T14:24:35.625Z,8.20
2023-08-07T14:27:02.412Z,9.90
2023-08-07T14:29:29.131Z,11.50
2023-08-07T14:31:55.931Z,12.90
2023-08-07T14:34:25.187Z,14.10
2023-08-07T14:36:53.145Z,15.00
2023-08-07T14:39:21.731Z,18.40
2023-08-07T14:41:49.396Z,19.60
2023-08-07T14:44:16.102Z,21.30
2023-08-07T14:46:43.174Z,20.90
2023-08-07T14:49:10.148Z,21.50
2023-08-07T14:51:36.877Z,21.20
2023-08-07T14:54:03.932Z,22.00
2023-08-07T14:56:31.199Z,21.50
2023-08-07T14:58:58.687Z,20.80
2023-08-07T15:01:25.809Z,21.20
2023-08-07T15:03:52.965Z,21.60
2023-08-07T15:06:19.800Z,22.10
2023-08-07T15:08:46.553Z,21.70
2023-08-07T15:11:13.537Z,21.30
2023-08-07T15:13:41.223Z,21.00
2023-08-07T15:16:08.023Z,21.10
2023-08-07T15:18:34.799Z,20.90
2023-08-07T15:21:02.816Z,20.80
2023-08-07T15:23:29.573Z,19.90
2023-08-07T15:25:58.336Z,20.40
2023-08-07T15:28:25.462Z,20.70
2023-08-07T15:30:53.756Z,20.70
2023-08-07T15:33:24.462Z,20.80
2023-08-07T15:35:55.374Z,21.00
2023-08-07T15:38:23.196Z,21.60
2023-08-07T15:40:50.485Z,21.50
2023-08-07T15:43:18.426Z,21.10
2023-08-07T15:45:53.500Z,21.20
2023-08-07T15:48:21.062Z,21.30
2023-08-07T15:50:48.066Z,22.00
2023-08-07T15:53:15.031Z,23.00
2023-08-07T15:55:41.838Z,22.70
2023-08-07T15:58:08.731Z,23.00
2023-08-07T16:00:35.952Z,23.30
2023-08-07T16:03:06.883Z,23.20
2023-08-07T16:05:34.431Z,23.00
2023-08-07T16:08:01.527Z,23.60
2023-08-07T16:10:28.411Z,23.40
2023-08-07T16:12:56.098Z,24.00
2023-08-07T16:15:23.916Z,23.50
2023-08-07T16:17:50.773Z,23.60
2023-08-07T16:20:18.097Z,23.10
2023-08-07T16:22:44.976Z,22.50
2023-08-07T16:25:12.178Z,21.80
2023-08-07T16:27:40.075Z,22.70
2023-08-07T16:30:07.556Z,23.00
2023-08-07T16:32:37.060Z,21.90
2023-08-07T16:35:04.658Z,21.80
2023-08-07T16:37:32.436Z,22.20
2023-08-07T16:39:59.623Z,22.60
2023-08-07T16:42:26.531Z,22.60
2023-08-07T16:44:53.353Z,23.10
2023-08-07T16:47:21.162Z,23.80
2023-08-07T16:49:49.156Z,23.50
2023-08-07T16:52:17.255Z,22.90
2023-08-07T16:54:45.254Z,23.50
2023-08-07T16:57:12.096Z,23.20
2023-08-07T16:59:38.794Z,23.10
2023-08-07T17:02:08.048Z,23.40
2023-08-07T17:04:36.333Z,24.00
2023-08-07T17:07:03.797Z,24.50
2023-08-07T17:09:30.968Z,22.70
2023-08-07T17:11:58.207Z,22.30
2023-08-07T17:14:25.228Z,22.70
2023-08-07T17:16:51.969Z,22.90
2023-08-07T17:19:18.707Z,22.80
2023-08-07T17:21:45.493Z,22.60
2023-08-07T17:24:13.599Z,23.00
2023-08-07T17:26:40.650Z,23.20
2023-08-07T17:29:07.388Z,22.70
2023-08-07T17:31:35.696Z,22.80
2023-08-07T17:34:04.185Z,23.10
2023-08-07T17:36:31.654Z,23.20
2023-08-07T17:38:59.995Z,24.00
2023-08-07T17:41:28.288Z,24.20
2023-08-07T17:43:55.483Z,23.50
2023-08-07T17:46:22.240Z,23.70
2023-08-07T17:48:49.207Z,23.40
2023-08-07T17:51:16.004Z,23.80
2023-08-07T17:53:42.976Z,24.00
2023-08-07T17:56:09.733Z,23.80
2023-08-07T17:58:36.728Z,24.40
2023-08-07T18:01:03.736Z,24.60
2023-08-07T18:03:30.862Z,25.10
2023-08-07T18:05:58.037Z,25.90
2023-08-07T18:08:25.397Z,25.50
2023-08-07T18:10:52.424Z,26.00
2023-08-07T18:13:19.687Z,26.20
2023-08-07T18:15:46.814Z,26.20
2023-08-07T18:18:14.251Z,27.00
2023-08-07T18:20:41.117Z,26.50
2023-08-07T18:23:07.826Z,27.00
2023-08-07T18:25:34.537Z,27.50
2023-08-07T18:28:01.374Z,27.90
2023-08-07T18:30:28.265Z,28.40
2023-08-07T18:32:55.383Z,28.90
2023-08-07T18:35:22.559Z,29.70
2023-08-07T18:37:49.405Z,30.30
2023-08-07T18:40:16.246Z,32.50
2023-08-07T18:42:44.046Z,32.60
2023-08-07T18:45:11.092Z,34.10
2023-08-07T18:47:38.082Z,35.80
2023-08-07T18:50:05.437Z,37.60
2023-08-07T18:52:32.213Z,37.20
2023-08-07T18:54:58.955Z,40.00
2023-08-07T18:57:25.725Z,40.40
2023-08-07T18:59:52.481Z,40.80
2023-08-07T19:02:19.268Z,41.80
2023-08-07T19:04:45.985Z,43.00
2023-08-07T19:07:13.228Z,42.30
2023-08-07T19:09:40.020Z,45.20
2023-08-07T19:12:07.212Z,46.80
2023-08-07T19:14:34.270Z,45.90
2023-08-07T19:17:03.025Z,47.40
2023-08-07T19:19:32.376Z,48.40
2023-08-07T19:22:00.648Z,50.40
2023-08-07T19:24:28.037Z,52.40
2023-08-07T19:26:55.078Z,52.50
2023-08-07T19:29:22.704Z,56.50
2023-08-07T19:31:51.437Z,56.60
2023-08-07T19:34:18.406Z,56.70
2023-08-07T19:36:45.180Z,59.70
2023-08-07T19:39:12.501Z,62.20
2023-08-07T19:41:39.934Z,65.00
2023-08-07T19:44:07.168Z,64.00
2023-08-07T19:46:34.514Z,69.90
2023-08-07T19:49:01.333Z,75.70
2023-08-07T19:51:28.357Z,75.80
2023-08-07T19:56:24.994Z,78.60
2023-08-07T19:58:51.821Z,77.70
2023-08-07T20:01:18.608Z,78.40
2023-08-07T20:03:45.454Z,79.70
2023-08-07T20:06:12.194Z,80.40
2023-08-07T20:08:39.014Z,83.40
2023-08-07T20:11:06.179Z,85.60
2023-08-07T20:13:33.596Z,89.10
2023-08-07T20:16:01.531Z,90.80
2023-08-07T20:18:28.485Z,90.60
2023-08-07T20:20:55.215Z,92.90
2023-08-07T20:23:26.573Z,93.00
2023-08-07T20:25:54.265Z,94.20
2023-08-07T20:28:21.085Z,95.20
2023-08-07T20:30:47.953Z,95.00
2023-08-07T20:33:14.980Z,94.50
2023-08-07T20:35:41.801Z,93.80
2023-08-07T20:38:08.559Z,93.90
2023-08-07T20:40:35.361Z,93.80
2023-08-07T20:43:02.344Z,94.50
2023-08-07T20:45:29.194Z,94.40
2023-08-07T20:47:56.088Z,94.50
2023-08-07T20:50:23.117Z,94.40
2023-08-07T20:52:49.835Z,94.00
2023-08-07T20:55:16.654Z,94.20
2023-08-07T20:57:43.396Z,94.50
2023-08-07T21:00:10.745Z,94.20
2023-08-07T21:02:37.508Z,94.40
2023-08-07T21:05:04.643Z,95.30
2023-08-07T21:07:31.456Z,95.00
2023-08-07T21:10:00.821Z,94.90
2023-08-07T21:12:28.190Z,95.60
2023-08-07T21:14:54.976Z,95.40
2023-08-07T21:17:21.702Z,95.90
2023-08-07T21:19:49.063Z,96.60
2023-08-07T21:22:15.831Z,96.10
2023-08-07T21:24:42.507Z,96.50
2023-08-07T21:27:09.240Z,96.20
2023-08-07T21:29:35.929Z,96.70
2023-08-07T21:32:03.078Z,96.80
2023-08-07T21:34:29.823Z,96.40
2023-08-07T21:36:56.489Z,96.10
2023-08-07T21:39:23.227Z,96.70
2023-08-07T21:41:50.010Z,95.90
2023-08-07T21:44:16.930Z,95.50
2023-08-07T21:46:46.445Z,95.60
2023-08-07T21:49:13.266Z,95.90
2023-08-07T21:51:40.053Z,96.60
2023-08-07T21:54:06.844Z,96.50
2023-08-07T21:56:33.564Z,97.60
2023-08-07T21:59:00.266Z,97.30
2023-08-07T22:01:27.064Z,97.90
2023-08-07T22:03:54.149Z,98.60
2023-08-07T22:06:21.452Z,98.70
2023-08-07T22:08:48.270Z,98.90
2023-08-07T22:11:15.207Z,99.70
2023-08-07T22:13:41.908Z,99.90
2023-08-07T22:16:08.696Z,99.90
2023-08-07T22:18:35.504Z,99.90
2023-08-07T22:21:02.260Z,99.90
2023-08-07T22:23:29.281Z,99.90
2023-08-07T22:25:56.381Z,99.90
2023-08-07T22:28:23.239Z,99.90
2023-08-07T22:30:51.269Z,99.90
2023-08-07T22:33:18.115Z,99.90
2023-08-07T22:35:44.811Z,99.90
2023-08-07T22:38:11.513Z,99.90
2023-08-07T22:40:38.761Z,99.40
2023-08-07T22:43:05.620Z,99.20
2023-08-07T22:45:32.344Z,99.90
2023-08-07T22:47:59.123Z,99.90
2023-08-07T22:50:25.989Z,99.90
2023-08-07T22:52:52.712Z,99.90
2023-08-07T22:55:19.836Z,99.90
2023-08-07T22:57:46.620Z,99.90
2023-08-07T23:00:13.592Z,99.90
2023-08-07T23:02:40.857Z,99.90
2023-08-07T23:05:09.127Z,99.90
2023-08-07T23:07:36.137Z,99.90
2023-08-07T23:10:02.980Z,99.90
2023-08-07T23:12:29.758Z,99.90
2023-08-07T23:14:56.489Z,99.90
2023-08-07T23:17:23.373Z,99.90
2023-08-07T23:19:50.114Z,99.90
2023-08-07T23:22:16.826Z,99.90
2023-08-07T23:24:43.671Z,99.90
2023-08-07T23:27:10.793Z,99.90
2023-08-07T23:29:39.431Z,99.90
2023-08-07T23:32:07.046Z,99.90
2023-08-07T23:34:33.952Z,99.90
2023-08-07T23:37:00.801Z,99.90
2023-08-07T23:39:27.876Z,99.90
2023-08-07T23:41:57.046Z,99.90
2023-08-07T23:44:24.094Z,99.90
2023-08-07T23:46:50.833Z,99.90
2023-08-07T23:49:17.608Z,99.90
2023-08-07T23:51:44.381Z,99.90
2023-08-07T23:54:11.153Z,99.90
2023-08-07T23:56:37.906Z,99.90
2023-08-07T23:59:04.650Z,99.90
